createdAt,value
2022-09-28T00:00:46.645Z,122.90
2022-09-28T00:03:13.902Z,118.40
2022-09-28T00:05:40.754Z,119.00
2022-09-28T00:08:07.705Z,124.60
2022-09-28T00:10:35.271Z,115.40
2022-09-28T00:13:02.836Z,116.20
2022-09-28T00:15:29.577Z,117.30
2022-09-28T00:17:57.549Z,115.60
2022-09-28T00:20:24.296Z,116.50
2022-09-28T00:22:51.453Z,108.50
2022-09-28T00:25:21.678Z,108.80
2022-09-28T00:27:50.641Z,106.00
2022-09-28T00:30:17.726Z,99.80
2022-09-28T00:32:45.394Z,99.10
2022-09-28T00:35:13.778Z,96.60
2022-09-28T00:37:40.621Z,97.00
2022-09-28T00:40:07.879Z,98.00
2022-09-28T00:42:35.753Z,94.00
2022-09-28T00:45:02.912Z,96.70
2022-09-28T00:47:33.544Z,87.20
2022-09-28T00:50:03.052Z,82.70
2022-09-28T00:52:35.836Z,88.80
2022-09-28T00:55:05.047Z,86.80
2022-09-28T00:57:32.306Z,81.20
2022-09-28T00:59:59.660Z,82.50
2022-09-28T01:02:26.602Z,77.20
2022-09-28T01:04:53.478Z,82.60
2022-09-28T01:07:20.314Z,84.90
2022-09-28T01:09:48.079Z,82.20
2022-09-28T01:12:15.753Z,79.40
2022-09-28T01:14:42.805Z,78.60
2022-09-28T01:17:17.537Z,82.50
2022-09-28T01:20:37.228Z,76.80
2022-09-28T01:23:30.802Z,64.40
2022-09-28T01:26:11.479Z,68.60
2022-09-28T01:31:10.338Z,50.30
2022-09-28T01:33:55.472Z,66.00
2022-09-28T01:36:26.811Z,65.60
2022-09-28T01:39:00.226Z,68.70
2022-09-28T01:41:29.585Z,73.20
2022-09-28T01:43:56.985Z,71.20
2022-09-28T01:46:30.589Z,71.50
2022-09-28T01:48:58.866Z,70.30
2022-09-28T01:51:30.526Z,71.30
2022-09-28T01:54:00.748Z,73.80
2022-09-28T01:56:35.783Z,66.90
2022-09-28T01:59:13.648Z,67.60
2022-09-28T02:01:47.943Z,68.10
2022-09-28T02:04:17.614Z,72.60
2022-09-28T02:07:16.201Z,71.10
2022-09-28T02:09:46.639Z,63.70
2022-09-28T02:12:17.517Z,75.60
2022-09-28T02:14:44.523Z,74.00
2022-09-28T02:17:12.185Z,78.80
2022-09-28T02:19:39.028Z,81.30
2022-09-28T02:22:25.645Z,88.90
2022-09-28T02:24:52.491Z,77.00
2022-09-28T02:27:31.733Z,81.50
2022-09-28T02:29:58.677Z,81.70
2022-09-28T02:32:25.527Z,82.30
2022-09-28T02:34:52.684Z,81.70
2022-09-28T02:37:19.938Z,84.60
2022-09-28T02:39:47.709Z,87.70
2022-09-28T02:42:25.107Z,83.00
2022-09-28T02:45:22.067Z,78.70
2022-09-28T02:48:07.856Z,75.70
2022-09-28T02:51:24.475Z,76.70
2022-09-28T02:54:04.845Z,71.70
2022-09-28T02:56:47.048Z,78.20
2022-09-28T02:59:20.561Z,75.20
2022-09-28T03:01:57.827Z,80.10
2022-09-28T03:04:29.820Z,76.30
2022-09-28T03:07:03.707Z,85.30
2022-09-28T03:09:37.886Z,86.10
2022-09-28T03:12:09.928Z,85.30
2022-09-28T03:14:37.393Z,85.10
2022-09-28T03:17:04.338Z,88.30
2022-09-28T03:19:32.720Z,88.70
2022-09-28T03:22:00.595Z,87.80
2022-09-28T03:24:27.852Z,90.90
2022-09-28T03:26:54.917Z,94.20
2022-09-28T03:29:21.650Z,93.50
2022-09-28T03:31:50.076Z,90.20
2022-09-28T03:34:17.496Z,92.90
2022-09-28T03:36:45.058Z,92.20
2022-09-28T03:39:11.907Z,43.60
2022-09-28T03:41:39.065Z,45.80
2022-09-28T03:44:05.913Z,45.10
2022-09-28T03:46:33.167Z,45.10
2022-09-28T03:49:01.140Z,45.60
2022-09-28T03:51:28.192Z,46.10
2022-09-28T03:53:55.656Z,46.60
2022-09-28T03:56:23.121Z,46.70
2022-09-28T03:58:50.280Z,45.70
2022-09-28T04:01:18.234Z,46.20
2022-09-28T04:03:45.619Z,47.20
2022-09-28T04:06:12.877Z,48.20
2022-09-28T04:08:40.846Z,47.20
2022-09-28T04:11:07.596Z,46.00
2022-09-28T04:13:36.799Z,46.60
2022-09-28T04:16:04.918Z,45.80
2022-09-28T04:18:34.695Z,46.50
2022-09-28T04:21:06.043Z,50.70
2022-09-28T04:23:34.233Z,47.50
2022-09-28T04:26:02.924Z,85.60
2022-09-28T04:28:48.514Z,69.80
2022-09-28T04:31:21.399Z,50.90
2022-09-28T04:33:49.181Z,49.00
2022-09-28T04:36:19.103Z,48.90
2022-09-28T04:38:53.075Z,48.80
2022-09-28T04:41:24.638Z,49.70
2022-09-28T04:46:19.564Z,45.00
2022-09-28T04:48:46.514Z,48.90
2022-09-28T04:51:14.857Z,52.20
2022-09-28T04:53:41.714Z,54.50
2022-09-28T04:56:13.380Z,55.30
2022-09-28T04:58:42.178Z,62.00
2022-09-28T05:01:14.742Z,75.50
2022-09-28T05:03:41.933Z,84.10
2022-09-28T05:06:09.079Z,81.30
2022-09-28T05:08:36.643Z,80.30
2022-09-28T05:11:04.856Z,97.20
2022-09-28T05:13:35.143Z,109.90
2022-09-28T05:16:05.358Z,151.10
2022-09-28T05:18:34.394Z,148.60
2022-09-28T05:21:01.309Z,151.80
2022-09-28T05:23:28.152Z,142.20
2022-09-28T05:25:55.092Z,144.60
2022-09-28T05:28:24.774Z,152.00
2022-09-28T05:30:52.464Z,147.00
2022-09-28T05:33:19.310Z,151.40
2022-09-28T05:35:49.747Z,158.50
2022-09-28T05:38:19.658Z,164.80
2022-09-28T05:40:46.720Z,185.80
2022-09-28T05:43:13.845Z,185.70
2022-09-28T05:45:42.198Z,175.60
2022-09-28T05:48:08.862Z,168.40
2022-09-28T05:50:36.320Z,166.10
2022-09-28T05:53:05.936Z,165.60
2022-09-28T05:58:02.284Z,122.90
2022-09-28T06:00:30.136Z,147.00
2022-09-28T06:03:08.889Z,155.10
2022-09-28T06:05:38.990Z,152.30
2022-09-28T06:08:06.554Z,158.70
2022-09-28T06:10:33.400Z,149.90
2022-09-28T06:13:01.164Z,157.10
2022-09-28T06:15:30.260Z,146.60
2022-09-28T06:18:04.576Z,159.90
2022-09-28T06:20:33.779Z,140.00
2022-09-28T06:23:00.517Z,140.80
2022-09-28T06:25:27.407Z,153.50
2022-09-28T06:27:58.809Z,145.40
2022-09-28T06:30:26.591Z,146.40
2022-09-28T06:32:54.711Z,146.20
2022-09-28T06:35:22.534Z,141.50
2022-09-28T06:37:49.278Z,132.70
2022-09-28T06:40:17.093Z,135.90
2022-09-28T06:42:44.408Z,134.10
2022-09-28T06:45:11.262Z,146.40
2022-09-28T06:47:38.419Z,137.60
2022-09-28T06:50:11.618Z,123.70
2022-09-28T06:52:38.989Z,120.70
2022-09-28T06:55:08.092Z,114.90
2022-09-28T06:57:36.082Z,112.20
2022-09-28T07:00:03.536Z,112.00
2022-09-28T07:02:31.503Z,99.60
2022-09-28T07:04:58.771Z,108.20
2022-09-28T07:07:26.757Z,111.80
2022-09-28T07:09:55.520Z,105.50
2022-09-28T07:12:24.741Z,105.30
2022-09-28T07:14:57.011Z,97.10
2022-09-28T07:17:24.304Z,102.20
2022-09-28T07:19:52.546Z,93.20
2022-09-28T07:22:23.834Z,99.50
2022-09-28T07:24:58.411Z,91.20
2022-09-28T07:27:28.919Z,85.80
2022-09-28T07:32:23.011Z,80.20
2022-09-28T07:34:50.234Z,77.10
2022-09-28T07:37:18.458Z,78.10
2022-09-28T07:40:04.866Z,77.70
2022-09-28T07:42:32.012Z,73.10
2022-09-28T07:44:59.048Z,77.80
2022-09-28T07:47:30.826Z,75.90
2022-09-28T07:49:59.714Z,75.30
2022-09-28T07:52:28.404Z,75.70
2022-09-28T07:54:56.167Z,84.60
2022-09-28T07:57:23.220Z,72.80
2022-09-28T07:59:53.139Z,69.40
2022-09-28T08:02:20.816Z,74.60
2022-09-28T08:04:48.881Z,77.40
2022-09-28T08:07:19.469Z,70.50
2022-09-28T08:09:50.563Z,65.30
2022-09-28T08:12:19.179Z,62.80
2022-09-28T08:14:46.912Z,65.80
2022-09-28T08:17:15.196Z,63.60
2022-09-28T08:20:01.397Z,64.50
2022-09-28T08:22:31.538Z,55.50
2022-09-28T08:24:58.267Z,58.00
2022-09-28T08:27:25.926Z,55.90
2022-09-28T08:29:53.284Z,56.10
2022-09-28T08:32:20.959Z,51.90
2022-09-28T08:34:47.802Z,51.10
2022-09-28T08:37:14.747Z,49.10
2022-09-28T08:39:42.102Z,51.80
2022-09-28T08:42:36.964Z,50.50
2022-09-28T08:45:07.412Z,51.20
2022-09-28T08:48:36.308Z,57.90
2022-09-28T08:51:06.704Z,46.30
2022-09-28T08:53:40.385Z,45.80
2022-09-28T08:56:12.036Z,49.40
2022-09-28T08:58:41.647Z,50.20
2022-09-28T09:01:09.462Z,48.00
2022-09-28T09:03:38.884Z,45.80
2022-09-28T09:06:10.178Z,50.80
2022-09-28T09:09:00.564Z,49.50
2022-09-28T09:11:27.613Z,49.50
2022-09-28T09:14:28.565Z,46.60
2022-09-28T09:17:01.353Z,46.50
2022-09-28T09:19:37.551Z,44.00
2022-09-28T09:22:18.192Z,47.60
2022-09-28T09:24:49.334Z,46.40
2022-09-28T09:27:40.243Z,53.40
2022-09-28T09:30:13.198Z,38.00
2022-09-28T09:32:53.262Z,45.40
2022-09-28T09:35:32.835Z,45.90
2022-09-28T09:38:19.035Z,51.20
2022-09-28T09:40:47.051Z,46.40
2022-09-28T09:43:35.152Z,51.10
2022-09-28T09:46:14.550Z,54.70
2022-09-28T09:48:45.636Z,53.00
2022-09-28T09:51:38.389Z,51.00
2022-09-28T09:54:34.629Z,54.70
2022-09-28T09:57:23.288Z,54.40
2022-09-28T09:59:51.867Z,56.60
2022-09-28T10:02:27.484Z,50.60
2022-09-28T10:04:57.670Z,52.60
2022-09-28T10:07:43.559Z,55.90
2022-09-28T10:10:17.135Z,55.80
2022-09-28T10:12:45.208Z,49.90
2022-09-28T10:15:15.134Z,53.80
2022-09-28T10:17:41.973Z,52.40
2022-09-28T10:20:13.212Z,53.10
2022-09-28T10:22:40.062Z,52.80
2022-09-28T10:25:09.360Z,53.80
2022-09-28T10:27:40.011Z,59.10
2022-09-28T10:30:10.541Z,53.60
2022-09-28T10:32:39.139Z,55.70
2022-09-28T10:35:18.155Z,57.00
2022-09-28T10:37:49.101Z,52.20
2022-09-28T10:40:29.969Z,54.00
2022-09-28T10:43:06.132Z,54.40
2022-09-28T10:45:36.606Z,50.90
2022-09-28T10:48:05.361Z,52.50
2022-09-28T10:50:33.859Z,60.30
2022-09-28T10:53:22.834Z,53.80
2022-09-28T10:56:00.945Z,50.70
2022-09-28T10:58:40.132Z,55.20
2022-09-28T11:01:10.074Z,54.50
2022-09-28T11:03:56.703Z,59.50
2022-09-28T11:06:36.554Z,61.20
2022-09-28T11:09:08.760Z,56.00
2022-09-28T11:11:41.824Z,52.80
2022-09-28T11:14:38.382Z,53.40
2022-09-28T11:17:15.141Z,53.60
2022-09-28T11:19:43.243Z,57.10
2022-09-28T11:22:44.271Z,52.80
2022-09-28T11:25:14.616Z,48.10
2022-09-28T11:27:54.448Z,50.70
2022-09-28T11:30:35.365Z,53.10
2022-09-28T11:33:17.095Z,51.10
2022-09-28T11:35:50.137Z,48.70
2022-09-28T11:38:54.760Z,50.40
2022-09-28T11:41:38.599Z,49.70
2022-09-28T11:44:33.270Z,49.40
2022-09-28T11:47:27.186Z,49.00
2022-09-28T11:49:55.756Z,48.40
2022-09-28T11:52:37.342Z,52.00
2022-09-28T11:55:09.919Z,49.80
2022-09-28T11:57:38.607Z,52.50
2022-09-28T12:00:09.684Z,49.10
2022-09-28T12:03:40.843Z,54.80
2022-09-28T12:06:31.408Z,43.70
2022-09-28T12:09:03.313Z,47.30
2022-09-28T12:11:35.451Z,52.70
2022-09-28T12:14:05.800Z,54.50
2022-09-28T12:19:44.831Z,52.40
2022-09-28T12:22:23.660Z,50.00
2022-09-28T12:24:53.735Z,45.30
2022-09-28T12:27:31.380Z,53.90
2022-09-28T12:30:05.575Z,50.10
2022-09-28T12:32:36.948Z,57.20
2022-09-28T12:35:48.445Z,54.80
2022-09-28T12:38:15.899Z,48.30
2022-09-28T12:41:16.644Z,52.90
2022-09-28T12:46:26.471Z,38.80
2022-09-28T12:49:51.617Z,47.50
2022-09-28T12:52:00.850Z,48.20
2022-09-28T12:54:38.463Z,52.70
2022-09-28T12:57:28.384Z,50.60
2022-09-28T13:00:15.897Z,49.70
2022-09-28T13:03:13.554Z,46.40
2022-09-28T13:06:07.025Z,44.10
2022-09-28T13:08:38.057Z,45.30
2022-09-28T13:11:33.901Z,51.70
2022-09-28T13:14:22.474Z,45.20
2022-09-28T13:17:11.010Z,46.90
2022-09-28T13:20:15.119Z,46.50
2022-09-28T13:23:01.127Z,46.10
2022-09-28T13:25:28.795Z,51.70
2022-09-28T13:28:01.063Z,50.20
2022-09-28T13:30:29.067Z,54.00
2022-09-28T13:32:57.312Z,58.70
2022-09-28T13:35:24.268Z,60.80
2022-09-28T13:38:17.781Z,50.90
2022-09-28T13:41:07.018Z,52.00
2022-09-28T13:43:59.655Z,51.00
2022-09-28T13:46:49.320Z,52.30
2022-09-28T13:49:32.139Z,50.70
2022-09-28T13:52:05.993Z,56.20
2022-09-28T13:54:43.235Z,58.10
2022-09-28T13:57:19.428Z,57.50
2022-09-28T14:00:15.786Z,58.00
2022-09-28T14:03:01.513Z,46.90
2022-09-28T14:05:47.414Z,52.70
2022-09-28T14:09:11.597Z,52.60
2022-09-28T14:11:44.591Z,48.50
2022-09-28T14:14:23.816Z,54.70
2022-09-28T14:17:22.915Z,52.30
2022-09-28T14:20:07.826Z,54.40
2022-09-28T14:22:46.707Z,51.90
2022-09-28T14:25:23.706Z,58.70
2022-09-28T14:28:04.461Z,53.40
2022-09-28T14:33:16.286Z,47.90
2022-09-28T14:35:48.501Z,51.30
2022-09-28T14:38:38.771Z,56.20
2022-09-28T14:41:33.347Z,50.10
2022-09-28T14:44:02.345Z,47.20
2022-09-28T14:46:35.380Z,50.50
2022-09-28T14:49:17.137Z,52.10
2022-09-28T14:51:47.768Z,53.70
2022-09-28T14:54:19.946Z,52.00
2022-09-28T14:56:57.504Z,52.80
2022-09-28T14:59:26.734Z,51.90
2022-09-28T15:01:57.233Z,53.10
2022-09-28T15:04:25.910Z,53.70
2022-09-28T15:06:53.519Z,55.50
2022-09-28T15:09:28.248Z,55.30
2022-09-28T15:12:11.684Z,54.80
2022-09-28T15:14:49.280Z,61.60
2022-09-28T15:17:20.733Z,55.80
2022-09-28T15:19:56.142Z,54.40
2022-09-28T15:22:23.032Z,57.50
2022-09-28T15:25:02.184Z,60.00
2022-09-28T15:27:36.721Z,61.20
2022-09-28T15:30:33.223Z,60.00
2022-09-28T15:33:20.858Z,60.00
2022-09-28T15:36:06.439Z,60.40
2022-09-28T15:38:34.514Z,52.80
2022-09-28T15:41:05.747Z,52.50
2022-09-28T15:43:33.329Z,55.40
2022-09-28T15:46:17.830Z,56.20
2022-09-28T15:48:51.598Z,57.80
2022-09-28T15:51:21.471Z,54.50
2022-09-28T15:53:57.989Z,55.00
2022-09-28T15:56:25.654Z,55.40
2022-09-28T15:59:14.925Z,52.20
2022-09-28T16:01:43.267Z,53.50
2022-09-28T16:04:32.074Z,57.60
2022-09-28T16:07:18.988Z,52.00
2022-09-28T16:09:54.388Z,53.00
2022-09-28T16:12:22.508Z,57.60
2022-09-28T16:14:50.681Z,54.90
2022-09-28T16:17:20.184Z,64.40
2022-09-28T16:19:48.567Z,62.30
2022-09-28T16:22:19.808Z,69.10
2022-09-28T16:24:54.328Z,64.10
2022-09-28T16:27:27.946Z,58.20
2022-09-28T16:30:03.128Z,59.60
2022-09-28T16:32:32.886Z,61.10
2022-09-28T16:35:15.899Z,60.90
2022-09-28T16:40:10.379Z,50.70
2022-09-28T16:42:39.805Z,58.50
2022-09-28T16:45:07.773Z,57.50
2022-09-28T16:47:36.255Z,64.00
2022-09-28T16:50:06.881Z,59.60
2022-09-28T16:52:56.763Z,59.40
2022-09-28T16:55:42.869Z,58.60
2022-09-28T16:58:10.311Z,59.70
2022-09-28T17:00:37.871Z,57.10
2022-09-28T17:03:13.170Z,68.50
2022-09-28T17:05:41.490Z,62.40
2022-09-28T17:08:15.051Z,57.50
2022-09-28T17:11:15.929Z,58.60
2022-09-28T17:13:43.448Z,56.50
2022-09-28T17:16:19.820Z,61.00
2022-09-28T17:18:49.665Z,57.70
2022-09-28T17:21:18.731Z,57.00
2022-09-28T17:23:47.598Z,63.10
2022-09-28T17:26:33.124Z,59.10
2022-09-28T17:29:01.610Z,62.50
2022-09-28T17:31:29.015Z,58.40
2022-09-28T17:33:56.416Z,58.80
2022-09-28T17:36:25.469Z,63.10
2022-09-28T17:39:05.969Z,53.80
2022-09-28T17:41:34.160Z,55.20
2022-09-28T17:44:02.521Z,54.40
2022-09-28T17:46:32.982Z,52.10
2022-09-28T17:49:01.137Z,57.00
2022-09-28T17:51:34.081Z,57.60
2022-09-28T17:54:01.282Z,57.20
2022-09-28T17:56:32.213Z,54.70
2022-09-28T17:59:02.611Z,55.30
2022-09-28T18:01:33.507Z,55.40
2022-09-28T18:04:01.365Z,54.20
2022-09-28T18:06:28.618Z,49.50
2022-09-28T18:08:56.389Z,53.00
2022-09-28T18:11:23.234Z,52.20
2022-09-28T18:13:50.592Z,52.20
2022-09-28T18:16:19.014Z,52.60
2022-09-28T18:18:47.137Z,55.10
2022-09-28T18:21:13.886Z,48.50
2022-09-28T18:23:41.204Z,53.00
2022-09-28T18:26:11.897Z,52.80
2022-09-28T18:28:39.476Z,48.90
2022-09-28T18:31:11.614Z,50.80
2022-09-28T18:33:50.882Z,48.40
2022-09-28T18:36:18.140Z,48.20
2022-09-28T18:38:45.922Z,51.70
2022-09-28T18:41:14.986Z,50.30
2022-09-28T18:43:43.108Z,53.00
2022-09-28T18:46:10.853Z,51.60
2022-09-28T18:48:39.749Z,55.20
2022-09-28T18:51:10.188Z,53.20
2022-09-28T18:53:38.107Z,52.20
2022-09-28T18:56:10.589Z,50.90
2022-09-28T18:58:38.771Z,53.40
2022-09-28T19:01:29.083Z,52.10
2022-09-28T19:04:02.161Z,48.70
2022-09-28T19:06:29.876Z,51.80
2022-09-28T19:08:57.008Z,54.10
2022-09-28T19:11:24.677Z,52.90
2022-09-28T19:13:52.760Z,54.30
2022-09-28T19:16:21.284Z,55.60
2022-09-28T19:18:50.121Z,52.70
2022-09-28T19:21:17.884Z,53.70
2022-09-28T19:23:48.766Z,55.50
2022-09-28T19:26:18.398Z,52.00
2022-09-28T19:28:45.282Z,49.30
2022-09-28T19:31:12.598Z,58.10
2022-09-28T19:33:40.689Z,58.00
2022-09-28T19:36:09.178Z,61.40
2022-09-28T19:38:37.160Z,59.40
2022-09-28T19:41:10.050Z,60.30
2022-09-28T19:43:37.686Z,51.80
2022-09-28T19:46:05.385Z,57.00
2022-09-28T19:48:32.695Z,55.00
2022-09-28T19:51:01.557Z,59.20
2022-09-28T19:53:33.258Z,56.80
2022-09-28T19:56:04.399Z,52.20
2022-09-28T19:58:33.840Z,52.10
2022-09-28T20:01:05.759Z,54.60
2022-09-28T20:03:33.735Z,49.30
2022-09-28T20:06:01.408Z,53.00
2022-09-28T20:08:30.012Z,56.30
2022-09-28T20:10:59.217Z,59.20
2022-09-28T20:13:33.296Z,54.00
2022-09-28T20:16:07.220Z,54.60
2022-09-28T20:18:35.018Z,47.50
2022-09-28T20:21:07.295Z,52.10
2022-09-28T20:23:35.809Z,51.50
2022-09-28T20:26:04.103Z,56.30
2022-09-28T20:28:32.237Z,50.80
2022-09-28T20:31:26.222Z,51.50
2022-09-28T20:33:54.198Z,49.00
2022-09-28T20:36:22.524Z,44.90
2022-09-28T20:38:50.034Z,48.60
2022-09-28T20:41:17.905Z,49.30
2022-09-28T20:43:53.344Z,48.30
2022-09-28T20:46:21.916Z,46.00
2022-09-28T20:48:54.476Z,44.50
2022-09-28T20:51:21.499Z,45.70
2022-09-28T20:53:50.085Z,46.20
2022-09-28T20:56:19.645Z,47.00
2022-09-28T20:58:49.727Z,50.50
2022-09-28T21:01:23.002Z,42.70
2022-09-28T21:03:50.994Z,42.70
2022-09-28T21:06:18.662Z,45.20
2022-09-28T21:08:45.914Z,45.00
2022-09-28T21:11:14.292Z,46.80
2022-09-28T21:13:42.472Z,46.50
2022-09-28T21:16:11.020Z,47.60
2022-09-28T21:18:39.035Z,47.20
2022-09-28T21:21:06.670Z,46.60
2022-09-28T21:23:34.880Z,44.30
2022-09-28T21:26:06.831Z,45.10
2022-09-28T21:28:34.030Z,45.10
2022-09-28T21:31:01.207Z,44.50
2022-09-28T21:33:27.918Z,45.70
2022-09-28T21:35:55.357Z,42.50
2022-09-28T21:38:22.306Z,43.90
2022-09-28T21:40:55.211Z,42.10
2022-09-28T21:43:25.525Z,43.00
2022-09-28T21:45:52.775Z,39.70
2022-09-28T21:48:20.569Z,43.10
2022-09-28T21:51:01.741Z,43.30
2022-09-28T21:53:30.481Z,38.40
2022-09-28T21:55:57.424Z,38.10
2022-09-28T21:58:25.957Z,38.90
2022-09-28T22:01:16.306Z,41.60
2022-09-28T22:03:49.981Z,37.60
2022-09-28T22:06:17.859Z,42.10
2022-09-28T22:08:46.027Z,40.60
2022-09-28T22:11:14.532Z,42.50
2022-09-28T22:13:46.268Z,44.00
2022-09-28T22:16:15.170Z,43.60
2022-09-28T22:18:42.628Z,44.30
2022-09-28T22:21:14.492Z,44.50
2022-09-28T22:23:41.543Z,47.30
2022-09-28T22:26:12.078Z,50.00
2022-09-28T22:28:43.942Z,49.60
2022-09-28T22:31:11.474Z,52.30
2022-09-28T22:33:38.353Z,51.50
2022-09-28T22:36:06.227Z,52.10
2022-09-28T22:38:34.713Z,51.30
2022-09-28T22:41:05.113Z,52.10
2022-09-28T22:43:32.506Z,52.50
2022-09-28T22:46:10.545Z,49.80
2022-09-28T22:48:39.136Z,49.10
2022-09-28T22:51:06.768Z,48.60
2022-09-28T22:53:34.228Z,50.40
2022-09-28T22:56:05.018Z,50.30
2022-09-28T22:58:33.764Z,52.60
2022-09-28T23:01:09.725Z,53.90
2022-09-28T23:03:39.845Z,54.50
2022-09-28T23:06:06.714Z,53.50
2022-09-28T23:08:34.571Z,53.30
2022-09-28T23:11:02.971Z,53.50
2022-09-28T23:13:30.614Z,53.30
2022-09-28T23:16:02.560Z,54.30
2022-09-28T23:18:30.660Z,56.70
2022-09-28T23:21:01.411Z,55.90
2022-09-28T23:25:55.606Z,42.70
2022-09-28T23:28:23.637Z,49.70
2022-09-28T23:30:50.636Z,51.20
2022-09-28T23:33:18.289Z,54.30
2022-09-28T23:35:45.139Z,52.30
2022-09-28T23:38:17.304Z,52.40
2022-09-28T23:40:46.051Z,54.70
2022-09-28T23:43:13.984Z,55.20
2022-09-28T23:45:42.667Z,53.70
2022-09-28T23:48:10.023Z,54.00
2022-09-28T23:50:37.181Z,54.40
2022-09-28T23:53:05.050Z,55.60
2022-09-28T23:55:32.307Z,54.60
2022-09-28T23:57:59.256Z,57.40
